Time;durP1;ratioP1;P1;durP2;ratioP2;P2;SDS_P1;SDS_P2;PMS_P1;PMS_P2;Temp;Humidity;BMP_temperature;BMP_pressure;BME280_temperature;BME280_humidity;BME280_pressure;Samples;Min_cycle;Max_cycle;Signal;HPM_P1;HPM_P2
2023/03/20 00:01:34;;;;;;;3.70;2.20;;;;;;;;;;5006567;28;20205;-94
2023/03/20 00:04:01;;;;;;;2.23;2.03;;;;;;;;;;5010126;28;20284;-94
2023/03/20 00:06:29;;;;;;;2.37;2.17;;;;;;;;;;5004692;28;20205;-93
2023/03/20 00:08:58;;;;;;;2.60;2.40;;;;;;;;;;5010932;28;20212;-95
2023/03/20 00:11:31;;;;;;;2.73;2.53;;;;;;;;;;5012348;28;20243;-94
2023/03/20 00:14:00;;;;;;;2.50;2.30;;;;;;;;;;5008385;28;20205;-94
2023/03/20 00:16:30;;;;;;;2.90;2.70;;;;;;;;;;5011946;28;20283;-93
2023/03/20 00:18:58;;;;;;;2.80;2.60;;;;;;;;;;5011247;28;20201;-92
2023/03/20 00:21:26;;;;;;;3.70;2.73;;;;;;;;;;4994525;28;20304;-94
2023/03/20 00:23:55;;;;;;;2.90;2.60;;;;;;;;;;5002532;28;20209;-95
2023/03/20 00:26:27;;;;;;;3.03;2.60;;;;;;;;;;4992744;28;20213;-94
2023/03/20 00:28:55;;;;;;;3.40;3.10;;;;;;;;;;4976865;28;20233;-94
2023/03/20 00:31:25;;;;;;;4.53;3.30;;;;;;;;;;5009894;28;20209;-93
2023/03/20 00:33:52;;;;;;;3.33;2.80;;;;;;;;;;5007591;28;20201;-95
2023/03/20 00:36:20;;;;;;;3.80;2.97;;;;;;;;;;5008407;28;20204;-94
2023/03/20 00:38:47;;;;;;;3.53;3.23;;;;;;;;;;5013683;28;20207;-93
2023/03/20 00:41:24;;;;;;;3.43;3.13;;;;;;;;;;5016704;28;20300;-93
2023/03/20 00:43:52;;;;;;;3.83;3.47;;;;;;;;;;5016371;28;20196;-93
2023/03/20 00:46:20;;;;;;;3.17;2.97;;;;;;;;;;5016412;28;20200;-95
2023/03/20 00:48:48;;;;;;;3.87;3.00;;;;;;;;;;5017272;28;20324;-94
2023/03/20 00:51:15;;;;;;;5.10;3.63;;;;;;;;;;5015667;28;20248;-95
2023/03/20 00:53:43;;;;;;;4.87;4.17;;;;;;;;;;5004917;28;20288;-95
2023/03/20 00:56:24;;;;;;;4.17;3.87;;;;;;;;;;5016038;28;20193;-94
2023/03/20 00:58:53;;;;;;;5.53;4.07;;;;;;;;;;5014638;28;20203;-93
2023/03/20 01:01:21;;;;;;;4.43;3.57;;;;;;;;;;5012872;28;20225;-94
2023/03/20 01:03:48;;;;;;;3.90;3.50;;;;;;;;;;5007896;28;20205;-95
2023/03/20 01:06:17;;;;;;;4.40;4.00;;;;;;;;;;4993208;28;20202;-94
2023/03/20 01:08:47;;;;;;;4.90;4.30;;;;;;;;;;5012889;28;20248;-94
2023/03/20 01:11:15;;;;;;;4.93;4.53;;;;;;;;;;5010462;28;20272;-93
2023/03/20 01:13:42;;;;;;;5.53;4.50;;;;;;;;;;5011647;28;20202;-95
2023/03/20 01:16:15;;;;;;;4.90;4.40;;;;;;;;;;4996400;28;20201;-95
2023/03/20 01:18:49;;;;;;;5.10;4.63;;;;;;;;;;5009522;28;20201;-95
2023/03/20 01:21:16;;;;;;;5.50;4.60;;;;;;;;;;4996689;28;20231;-94
2023/03/20 01:23:43;;;;;;;6.20;5.63;;;;;;;;;;5013797;28;20193;-95
2023/03/20 01:26:20;;;;;;;6.73;5.90;;;;;;;;;;5012649;28;20222;-94
2023/03/20 01:28:47;;;;;;;6.10;5.53;;;;;;;;;;5010051;28;20239;-94
2023/03/20 01:31:16;;;;;;;8.80;7.80;;;;;;;;;;5004123;28;20208;-92
2023/03/20 01:33:45;;;;;;;8.30;7.13;;;;;;;;;;5013924;28;20356;-94
2023/03/20 01:36:13;;;;;;;7.73;6.93;;;;;;;;;;5013661;28;20217;-95
2023/03/20 01:38:41;;;;;;;12.27;10.97;;;;;;;;;;4989716;28;20202;-95
2023/03/20 01:41:10;;;;;;;16.37;14.50;;;;;;;;;;5009620;28;20227;-94
2023/03/20 01:43:37;;;;;;;15.50;13.90;;;;;;;;;;5014428;28;20264;-94
2023/03/20 01:46:16;;;;;;;15.20;12.70;;;;;;;;;;5009763;28;20213;-95
2023/03/20 01:48:59;;;;;;;17.20;15.33;;;;;;;;;;5006795;28;20193;-94
2023/03/20 01:51:27;;;;;;;18.07;16.27;;;;;;;;;;4996349;28;20284;-93
2023/03/20 01:53:55;;;;;;;19.70;17.00;;;;;;;;;;4990801;28;20233;-94
2023/03/20 01:56:22;;;;;;;16.03;14.43;;;;;;;;;;5013067;28;20207;-95
2023/03/20 01:58:52;;;;;;;19.13;17.23;;;;;;;;;;5011748;28;20196;-95
2023/03/20 02:01:20;;;;;;;19.57;17.57;;;;;;;;;;5011409;28;20228;-94
2023/03/20 02:03:50;;;;;;;18.87;16.87;;;;;;;;;;5013234;28;20193;-92
2023/03/20 02:06:21;;;;;;;18.90;16.97;;;;;;;;;;5012256;28;20281;-94
2023/03/20 02:08:49;;;;;;;19.63;17.60;;;;;;;;;;5011087;28;20205;-94
2023/03/20 02:11:17;;;;;;;20.47;18.37;;;;;;;;;;5010421;28;20231;-94
2023/03/20 02:13:45;;;;;;;17.27;15.50;;;;;;;;;;5005327;28;20206;-91
2023/03/20 02:16:13;;;;;;;19.70;17.70;;;;;;;;;;5008597;28;20287;-94
2023/03/20 02:18:42;;;;;;;18.77;16.87;;;;;;;;;;5011653;28;20200;-93
2023/03/20 02:21:24;;;;;;;18.87;16.87;;;;;;;;;;5002028;28;20252;-92
2023/03/20 02:24:09;;;;;;;18.83;16.90;;;;;;;;;;4962478;28;20205;-93
2023/03/20 02:26:44;;;;;;;17.20;15.43;;;;;;;;;;5006649;28;20200;-94
2023/03/20 02:29:29;;;;;;;19.63;17.60;;;;;;;;;;5010607;28;20193;-95
2023/03/20 02:32:14;;;;;;;19.20;17.20;;;;;;;;;;4983585;28;20198;-95
2023/03/20 02:34:57;;;;;;;19.57;17.53;;;;;;;;;;5008937;28;20196;-95
2023/03/20 02:37:33;;;;;;;19.07;17.03;;;;;;;;;;5009967;28;20212;-94
2023/03/20 02:40:04;;;;;;;16.77;15.13;;;;;;;;;;5004634;28;20284;-93
2023/03/20 02:42:35;;;;;;;18.70;16.77;;;;;;;;;;5007509;28;20209;-94
2023/03/20 02:45:04;;;;;;;19.07;17.17;;;;;;;;;;5012047;28;20205;-94
2023/03/20 02:47:34;;;;;;;18.40;16.13;;;;;;;;;;5007034;28;20200;-92
2023/03/20 02:50:07;;;;;;;17.83;16.03;;;;;;;;;;5005713;28;20220;-92
2023/03/20 02:52:40;;;;;;;19.47;16.97;;;;;;;;;;5007240;28;20295;-94
2023/03/20 02:55:14;;;;;;;17.77;15.97;;;;;;;;;;5013234;28;20296;-95
2023/03/20 02:57:45;;;;;;;17.70;15.93;;;;;;;;;;5007130;28;20204;-93
2023/03/20 03:00:14;;;;;;;16.87;15.07;;;;;;;;;;5002714;28;20223;-93
2023/03/20 03:02:45;;;;;;;18.17;15.73;;;;;;;;;;5012092;28;20221;-95
2023/03/20 03:05:14;;;;;;;17.20;15.50;;;;;;;;;;5000194;28;20240;-94
2023/03/20 03:07:46;;;;;;;16.47;14.87;;;;;;;;;;4984668;28;20201;-95
2023/03/20 03:10:18;;;;;;;16.00;13.40;;;;;;;;;;5012174;28;20224;-94
2023/03/20 03:12:48;;;;;;;15.80;14.20;;;;;;;;;;5013527;28;20220;-94
2023/03/20 03:15:17;;;;;;;15.17;13.57;;;;;;;;;;5009437;28;20216;-94
2023/03/20 03:17:46;;;;;;;17.70;15.80;;;;;;;;;;5008465;28;20212;-93
2023/03/20 03:20:18;;;;;;;16.03;14.37;;;;;;;;;;5011269;28;20208;-94
2023/03/20 03:22:47;;;;;;;15.77;14.10;;;;;;;;;;5006598;28;20223;-93
2023/03/20 03:25:14;;;;;;;17.07;15.27;;;;;;;;;;5011159;28;20212;-95
2023/03/20 03:27:43;;;;;;;15.10;13.60;;;;;;;;;;5007419;28;20269;-94
2023/03/20 03:30:14;;;;;;;14.67;13.17;;;;;;;;;;5012702;28;20207;-95
2023/03/20 03:32:44;;;;;;;16.30;14.60;;;;;;;;;;5008967;28;20295;-94
2023/03/20 03:35:14;;;;;;;14.57;13.17;;;;;;;;;;4995316;28;20208;-94
2023/03/20 03:37:47;;;;;;;15.17;13.57;;;;;;;;;;5009732;28;20197;-95
2023/03/20 03:40:21;;;;;;;16.67;14.50;;;;;;;;;;5013750;28;20211;-91
2023/03/20 03:42:53;;;;;;;15.73;14.13;;;;;;;;;;5010146;28;20216;-95
2023/03/20 03:45:24;;;;;;;14.47;13.00;;;;;;;;;;5008116;28;20207;-95
2023/03/20 03:47:54;;;;;;;14.43;13.03;;;;;;;;;;5009337;28;20197;-95
2023/03/20 03:50:25;;;;;;;15.20;13.70;;;;;;;;;;4976199;28;20202;-95
2023/03/20 03:52:56;;;;;;;14.20;12.80;;;;;;;;;;5008315;28;20211;-95
2023/03/20 03:55:26;;;;;;;12.83;11.60;;;;;;;;;;5008801;28;20204;-95
2023/03/20 03:57:57;;;;;;;14.00;12.60;;;;;;;;;;5005936;28;20208;-94
2023/03/20 04:00:26;;;;;;;13.20;11.90;;;;;;;;;;5008004;28;20213;-95
2023/03/20 04:02:54;;;;;;;13.00;11.70;;;;;;;;;;4991769;28;20244;-95
2023/03/20 04:05:22;;;;;;;13.23;11.83;;;;;;;;;;5006340;28;20304;-94
2023/03/20 04:07:54;;;;;;;12.17;10.93;;;;;;;;;;4973824;28;20202;-95
2023/03/20 04:10:21;;;;;;;11.67;10.50;;;;;;;;;;5008010;28;20212;-94
2023/03/20 04:12:50;;;;;;;13.37;12.07;;;;;;;;;;5016434;28;20231;-95
2023/03/20 04:15:19;;;;;;;15.80;11.80;;;;;;;;;;5016344;28;20223;-93
2023/03/20 04:17:46;;;;;;;14.47;12.53;;;;;;;;;;5012900;28;20212;-95
2023/03/20 04:20:14;;;;;;;13.97;12.57;;;;;;;;;;5013640;28;20208;-95
2023/03/20 04:22:42;;;;;;;14.70;12.73;;;;;;;;;;5007677;28;20232;-96
2023/03/20 04:25:10;;;;;;;13.93;12.50;;;;;;;;;;5016644;28;20209;-95
2023/03/20 04:27:38;;;;;;;15.57;13.87;;;;;;;;;;5015036;28;20285;-95
2023/03/20 04:30:07;;;;;;;17.20;14.67;;;;;;;;;;4996578;28;20210;-94
2023/03/20 04:32:35;;;;;;;16.93;14.17;;;;;;;;;;5006277;28;20288;-94
2023/03/20 04:35:02;;;;;;;16.83;14.83;;;;;;;;;;5013871;28;20282;-95
2023/03/20 04:37:30;;;;;;;16.83;15.00;;;;;;;;;;4992676;28;20202;-94
2023/03/20 04:39:57;;;;;;;18.03;16.03;;;;;;;;;;5007500;28;20200;-92
2023/03/20 04:42:24;;;;;;;16.00;14.10;;;;;;;;;;5013437;28;20224;-95
2023/03/20 04:44:52;;;;;;;18.13;15.07;;;;;;;;;;5015647;28;20189;-95
2023/03/20 04:47:20;;;;;;;15.93;14.20;;;;;;;;;;5009666;28;20200;-92
2023/03/20 04:49:48;;;;;;;18.07;14.17;;;;;;;;;;5014023;28;20197;-95
2023/03/20 04:52:15;;;;;;;15.70;13.17;;;;;;;;;;5015959;28;20205;-95
2023/03/20 04:54:42;;;;;;;13.73;11.83;;;;;;;;;;4993919;28;20212;-95
2023/03/20 04:57:10;;;;;;;14.23;12.33;;;;;;;;;;5005327;28;20268;-94
2023/03/20 04:59:37;;;;;;;15.93;13.40;;;;;;;;;;5016132;28;20211;-94
2023/03/20 05:02:05;;;;;;;13.47;12.07;;;;;;;;;;5015229;28;20232;-94
2023/03/20 05:04:33;;;;;;;14.47;11.67;;;;;;;;;;4997085;28;20205;-94
2023/03/20 05:07:01;;;;;;;15.33;11.73;;;;;;;;;;5000771;28;20295;-93
2023/03/20 05:09:28;;;;;;;14.80;11.53;;;;;;;;;;5003629;28;20215;-94
2023/03/20 05:11:55;;;;;;;13.60;11.77;;;;;;;;;;5009401;28;20215;-95
2023/03/20 05:14:23;;;;;;;14.43;11.80;;;;;;;;;;5011980;28;20205;-95
2023/03/20 05:16:50;;;;;;;14.47;11.47;;;;;;;;;;5015662;28;20284;-95
2023/03/20 05:19:18;;;;;;;12.80;11.27;;;;;;;;;;5000692;28;20233;-94
2023/03/20 05:21:46;;;;;;;12.70;11.40;;;;;;;;;;5015331;28;20192;-92
2023/03/20 05:24:14;;;;;;;14.03;10.83;;;;;;;;;;5012016;28;20223;-94
2023/03/20 05:26:41;;;;;;;13.57;11.13;;;;;;;;;;5015474;28;20196;-95
2023/03/20 05:29:08;;;;;;;12.97;10.90;;;;;;;;;;5015246;28;20211;-93
2023/03/20 05:31:36;;;;;;;13.67;10.43;;;;;;;;;;5011177;28;20290;-94
2023/03/20 05:34:04;;;;;;;13.87;11.03;;;;;;;;;;5013473;28;20197;-96
2023/03/20 05:36:31;;;;;;;13.73;10.50;;;;;;;;;;5010561;28;20205;-94
2023/03/20 05:39:00;;;;;;;12.53;10.47;;;;;;;;;;5009723;28;20204;-92
2023/03/20 05:41:28;;;;;;;13.07;10.57;;;;;;;;;;5008824;28;20230;-95
2023/03/20 05:43:55;;;;;;;12.77;10.83;;;;;;;;;;5013453;28;20324;-95
2023/03/20 05:46:22;;;;;;;12.83;10.77;;;;;;;;;;5005663;28;20201;-95
2023/03/20 05:48:50;;;;;;;10.93;9.83;;;;;;;;;;5006493;28;20208;-95
2023/03/20 05:51:17;;;;;;;14.23;10.50;;;;;;;;;;5011989;28;20247;-93
2023/03/20 05:53:44;;;;;;;12.23;10.63;;;;;;;;;;5012212;28;20200;-96
2023/03/20 05:56:13;;;;;;;33.40;25.63;;;;;;;;;;5011258;28;20236;-95
2023/03/20 05:58:41;;;;;;;14.43;12.43;;;;;;;;;;5011184;28;20197;-91
2023/03/20 06:01:08;;;;;;;11.90;10.27;;;;;;;;;;5008575;28;20224;-95
2023/03/20 06:03:35;;;;;;;11.00;9.53;;;;;;;;;;4999992;28;20256;-94
2023/03/20 06:06:03;;;;;;;10.63;9.60;;;;;;;;;;5007587;28;20201;-91
2023/03/20 06:08:30;;;;;;;12.53;9.63;;;;;;;;;;5003165;28;20229;-93
2023/03/20 06:10:57;;;;;;;10.07;8.87;;;;;;;;;;5009834;28;20204;-92
2023/03/20 06:13:26;;;;;;;10.73;9.50;;;;;;;;;;5008715;28;20205;-94
2023/03/20 06:15:55;;;;;;;10.63;9.33;;;;;;;;;;5011119;28;20272;-95
2023/03/20 06:18:23;;;;;;;13.33;10.87;;;;;;;;;;5000856;28;20236;-93
2023/03/20 06:20:52;;;;;;;12.20;10.00;;;;;;;;;;5011528;28;20288;-91
2023/03/20 06:23:20;;;;;;;12.30;10.83;;;;;;;;;;5010855;28;20235;-95
2023/03/20 06:25:47;;;;;;;12.83;10.17;;;;;;;;;;5004417;28;20228;-96
2023/03/20 06:28:15;;;;;;;11.43;9.67;;;;;;;;;;5003932;28;20212;-96
2023/03/20 06:30:44;;;;;;;11.20;10.10;;;;;;;;;;5010691;28;20217;-93
2023/03/20 06:33:11;;;;;;;10.50;9.40;;;;;;;;;;5005913;28;20300;-93
2023/03/20 06:35:38;;;;;;;10.83;9.50;;;;;;;;;;5009464;28;20296;-94
2023/03/20 06:38:06;;;;;;;12.37;9.50;;;;;;;;;;5005052;28;20271;-91
2023/03/20 06:40:33;;;;;;;9.93;8.90;;;;;;;;;;5009688;28;20201;-93
2023/03/20 06:43:00;;;;;;;10.80;9.70;;;;;;;;;;5007376;28;20303;-92
2023/03/20 06:45:28;;;;;;;11.80;10.40;;;;;;;;;;5010119;28;20201;-93
2023/03/20 06:47:57;;;;;;;13.27;10.40;;;;;;;;;;5005816;28;20225;-95
2023/03/20 06:50:24;;;;;;;12.93;10.23;;;;;;;;;;5010326;28;20197;-94
2023/03/20 06:52:51;;;;;;;13.00;10.80;;;;;;;;;;5008317;28;20228;-96
2023/03/20 06:55:19;;;;;;;13.60;11.33;;;;;;;;;;5009566;28;20316;-94
2023/03/20 06:57:46;;;;;;;14.17;11.20;;;;;;;;;;5002725;28;20205;-95
2023/03/20 07:00:14;;;;;;;14.33;11.27;;;;;;;;;;5010550;28;20288;-95
2023/03/20 07:02:41;;;;;;;14.17;11.43;;;;;;;;;;5013639;28;20264;-96
2023/03/20 07:05:11;;;;;;;14.50;11.73;;;;;;;;;;5003870;28;20208;-96
2023/03/20 07:07:38;;;;;;;14.77;11.10;;;;;;;;;;4989949;28;20197;-95
2023/03/20 07:10:06;;;;;;;14.63;11.67;;;;;;;;;;5010801;28;20204;-94
2023/03/20 07:12:33;;;;;;;13.03;10.73;;;;;;;;;;5005152;28;20204;-93
2023/03/20 07:15:01;;;;;;;13.07;11.23;;;;;;;;;;5009259;28;20204;-96
2023/03/20 07:17:29;;;;;;;13.90;11.70;;;;;;;;;;5000694;28;20205;-91
2023/03/20 07:19:56;;;;;;;14.43;11.47;;;;;;;;;;5002071;28;20227;-96
2023/03/20 07:22:26;;;;;;;12.93;11.10;;;;;;;;;;5002967;28;20227;-96
2023/03/20 07:24:54;;;;;;;13.17;11.10;;;;;;;;;;5007642;28;20201;-89
2023/03/20 07:27:22;;;;;;;12.17;10.70;;;;;;;;;;5004919;28;20201;-93
2023/03/20 07:29:49;;;;;;;13.63;10.90;;;;;;;;;;5005050;28;20197;-96
2023/03/20 07:32:17;;;;;;;15.33;11.13;;;;;;;;;;5005829;28;20212;-96
2023/03/20 07:34:45;;;;;;;13.63;11.20;;;;;;;;;;5010236;28;20193;-94
2023/03/20 07:37:13;;;;;;;13.80;11.03;;;;;;;;;;5006848;28;20193;-96
2023/03/20 07:39:42;;;;;;;12.10;10.80;;;;;;;;;;5005474;28;20207;-89
2023/03/20 07:42:09;;;;;;;13.47;10.50;;;;;;;;;;5009308;28;20200;-92
2023/03/20 07:44:36;;;;;;;12.27;10.90;;;;;;;;;;5008092;28;20236;-96
2023/03/20 07:47:04;;;;;;;13.33;11.30;;;;;;;;;;5009678;28;20275;-95
2023/03/20 07:49:32;;;;;;;14.10;11.73;;;;;;;;;;5007199;28;20291;-95
2023/03/20 07:51:59;;;;;;;14.07;11.10;;;;;;;;;;5004245;28;20197;-95
2023/03/20 07:54:27;;;;;;;14.27;11.57;;;;;;;;;;5004901;28;20212;-96
2023/03/20 07:56:55;;;;;;;13.27;11.17;;;;;;;;;;5001420;28;20304;-94
2023/03/20 07:59:23;;;;;;;14.27;10.77;;;;;;;;;;5002898;28;20204;-95
2023/03/20 08:01:51;;;;;;;16.87;11.17;;;;;;;;;;5002570;28;20204;-92
2023/03/20 08:04:21;;;;;;;14.33;11.90;;;;;;;;;;4995735;28;20228;-94
2023/03/20 08:06:48;;;;;;;13.83;11.77;;;;;;;;;;5010649;28;20226;-96
2023/03/20 08:09:16;;;;;;;13.97;12.20;;;;;;;;;;4998815;28;20208;-95
2023/03/20 08:11:43;;;;;;;17.10;11.90;;;;;;;;;;5009718;28;20201;-96
2023/03/20 08:14:12;;;;;;;23.77;12.10;;;;;;;;;;5008604;28;20213;-95
2023/03/20 08:16:40;;;;;;;13.47;10.13;;;;;;;;;;5006235;28;20267;-96
2023/03/20 08:19:07;;;;;;;12.13;9.80;;;;;;;;;;5003989;28;20209;-95
2023/03/20 08:21:35;;;;;;;10.50;9.23;;;;;;;;;;5006717;28;20205;-95
2023/03/20 08:24:02;;;;;;;15.47;10.10;;;;;;;;;;5003219;28;20221;-96
2023/03/20 08:26:29;;;;;;;12.60;9.50;;;;;;;;;;5003105;28;20275;-96
2023/03/20 08:28:57;;;;;;;14.87;11.40;;;;;;;;;;4998468;28;20220;-94
2023/03/20 08:31:25;;;;;;;12.63;9.87;;;;;;;;;;5012801;28;20207;-95
2023/03/20 08:33:52;;;;;;;12.57;10.07;;;;;;;;;;5009457;28;20292;-96
2023/03/20 08:36:20;;;;;;;11.27;9.97;;;;;;;;;;5008319;28;20264;-96
2023/03/20 08:38:48;;;;;;;13.13;10.23;;;;;;;;;;5007967;28;20211;-94
2023/03/20 08:41:15;;;;;;;10.80;9.50;;;;;;;;;;5002204;28;20200;-95
2023/03/20 08:43:42;;;;;;;12.13;9.97;;;;;;;;;;5012695;28;20281;-96
2023/03/20 08:46:10;;;;;;;12.83;9.53;;;;;;;;;;5002652;28;20232;-96
2023/03/20 08:48:38;;;;;;;12.30;9.97;;;;;;;;;;5006153;28;20200;-92
2023/03/20 08:51:07;;;;;;;12.17;9.70;;;;;;;;;;5009473;28;20292;-96
2023/03/20 08:53:34;;;;;;;12.30;10.23;;;;;;;;;;5007083;28;20219;-95
2023/03/20 08:56:01;;;;;;;11.00;9.30;;;;;;;;;;5007449;28;20280;-94
2023/03/20 08:58:29;;;;;;;11.83;9.50;;;;;;;;;;5007262;28;20202;-96
2023/03/20 09:01:01;;;;;;;11.10;9.67;;;;;;;;;;5009238;28;20213;-95
2023/03/20 09:03:29;;;;;;;11.07;9.70;;;;;;;;;;5006554;28;20244;-95
2023/03/20 09:05:57;;;;;;;13.43;9.60;;;;;;;;;;5000089;28;20209;-95
2023/03/20 09:08:25;;;;;;;9.13;8.23;;;;;;;;;;5008605;28;20344;-95
2023/03/20 09:10:52;;;;;;;9.93;8.60;;;;;;;;;;5018840;28;20279;-94
2023/03/20 09:13:21;;;;;;;9.60;7.90;;;;;;;;;;5015774;28;20209;-93
2023/03/20 09:15:52;;;;;;;9.13;7.70;;;;;;;;;;5006099;28;20209;-95
2023/03/20 09:18:20;;;;;;;9.30;7.83;;;;;;;;;;5008810;28;20217;-95
2023/03/20 09:20:48;;;;;;;9.63;7.43;;;;;;;;;;5014783;28;20291;-96
2023/03/20 09:23:17;;;;;;;9.40;7.90;;;;;;;;;;5006170;28;20253;-96
2023/03/20 09:25:44;;;;;;;9.53;7.27;;;;;;;;;;5005323;28;20274;-96
2023/03/20 09:28:11;;;;;;;9.13;7.90;;;;;;;;;;5014008;28;20228;-96
2023/03/20 09:30:39;;;;;;;10.03;8.30;;;;;;;;;;5006269;28;20229;-95
2023/03/20 09:33:06;;;;;;;11.93;8.47;;;;;;;;;;5007642;28;20209;-92
2023/03/20 09:35:33;;;;;;;8.17;7.30;;;;;;;;;;5011552;28;20233;-96
2023/03/20 09:38:01;;;;;;;10.33;8.37;;;;;;;;;;5003110;28;20312;-95
2023/03/20 09:40:31;;;;;;;11.67;8.67;;;;;;;;;;5009779;28;20213;-90
2023/03/20 09:43:03;;;;;;;9.57;8.37;;;;;;;;;;5005431;28;20233;-91
2023/03/20 09:45:37;;;;;;;9.80;8.80;;;;;;;;;;5002600;28;20201;-95
2023/03/20 09:48:09;;;;;;;12.73;9.23;;;;;;;;;;5009581;28;20250;-94
2023/03/20 09:50:39;;;;;;;10.13;8.23;;;;;;;;;;5009657;28;20211;-95
2023/03/20 09:53:11;;;;;;;10.53;9.10;;;;;;;;;;5009799;28;20204;-95
2023/03/20 09:55:41;;;;;;;11.33;9.07;;;;;;;;;;4998730;28;20201;-94
2023/03/20 09:58:12;;;;;;;9.27;8.33;;;;;;;;;;5011013;28;20277;-95
2023/03/20 10:00:41;;;;;;;11.03;7.53;;;;;;;;;;5004985;28;20289;-94
2023/03/20 10:03:13;;;;;;;7.83;6.60;;;;;;;;;;5010668;28;20205;-95
2023/03/20 10:05:43;;;;;;;8.63;6.53;;;;;;;;;;5006932;28;20225;-92
2023/03/20 10:08:15;;;;;;;7.40;6.07;;;;;;;;;;5006176;28;20232;-94
2023/03/20 10:10:50;;;;;;;13.30;7.20;;;;;;;;;;5005517;28;20221;-95
2023/03/20 10:13:28;;;;;;;8.60;6.77;;;;;;;;;;5006339;28;20201;-95
2023/03/20 10:15:59;;;;;;;7.67;6.77;;;;;;;;;;4997338;28;20284;-92
2023/03/20 10:18:27;;;;;;;8.83;6.87;;;;;;;;;;5002532;28;20280;-92
2023/03/20 10:20:57;;;;;;;7.17;6.03;;;;;;;;;;5012629;28;20205;-95
2023/03/20 10:23:27;;;;;;;10.03;6.87;;;;;;;;;;4997572;28;20205;-95
2023/03/20 10:25:59;;;;;;;8.70;5.90;;;;;;;;;;5002780;28;20205;-96
2023/03/20 10:28:29;;;;;;;8.17;5.93;;;;;;;;;;5009216;28;20259;-95
2023/03/20 10:31:01;;;;;;;7.73;5.77;;;;;;;;;;5004963;28;20201;-96
2023/03/20 10:33:34;;;;;;;7.53;5.63;;;;;;;;;;5003532;28;20209;-95
2023/03/20 10:36:08;;;;;;;7.70;5.87;;;;;;;;;;5004865;28;20293;-95
2023/03/20 10:38:39;;;;;;;6.40;5.20;;;;;;;;;;5003142;28;20200;-93
2023/03/20 10:41:11;;;;;;;6.83;5.10;;;;;;;;;;5008330;28;20224;-93
2023/03/20 10:43:39;;;;;;;6.77;5.13;;;;;;;;;;5009496;28;20233;-96
2023/03/20 10:46:09;;;;;;;9.43;5.40;;;;;;;;;;5000989;28;20259;-96
2023/03/20 10:48:37;;;;;;;7.33;4.90;;;;;;;;;;5001513;28;20219;-94
2023/03/20 10:51:05;;;;;;;5.07;4.40;;;;;;;;;;5005999;28;20205;-94
2023/03/20 10:53:35;;;;;;;5.57;4.50;;;;;;;;;;5009338;28;20208;-95
2023/03/20 10:56:05;;;;;;;6.33;4.10;;;;;;;;;;4996523;28;20308;-95
2023/03/20 10:58:36;;;;;;;7.50;3.57;;;;;;;;;;4998330;28;20193;-95
2023/03/20 11:01:03;;;;;;;3.63;3.30;;;;;;;;;;5011090;28;20269;-93
2023/03/20 11:03:31;;;;;;;4.63;3.23;;;;;;;;;;5011987;28;20230;-93
2023/03/20 11:06:00;;;;;;;6.70;3.73;;;;;;;;;;5007122;28;20205;-93
2023/03/20 11:08:31;;;;;;;6.20;4.20;;;;;;;;;;5008353;28;20211;-93
2023/03/20 11:11:00;;;;;;;5.50;3.97;;;;;;;;;;5004074;28;20236;-96
2023/03/20 11:13:30;;;;;;;4.77;3.60;;;;;;;;;;5015532;28;20295;-95
2023/03/20 11:16:08;;;;;;;6.27;3.60;;;;;;;;;;5005718;28;20205;-93
2023/03/20 11:18:35;;;;;;;5.63;4.07;;;;;;;;;;5007591;28;20231;-91
2023/03/20 11:21:03;;;;;;;5.07;3.43;;;;;;;;;;5003477;28;20209;-92
2023/03/20 11:23:33;;;;;;;6.13;4.37;;;;;;;;;;5006158;28;20212;-96
2023/03/20 11:26:01;;;;;;;5.03;3.70;;;;;;;;;;5008060;28;20205;-91
2023/03/20 11:28:32;;;;;;;9.00;4.03;;;;;;;;;;5006060;28;20207;-90
2023/03/20 11:31:03;;;;;;;6.07;3.73;;;;;;;;;;5005407;28;20292;-93
2023/03/20 11:33:30;;;;;;;5.73;3.47;;;;;;;;;;5003117;28;20309;-90
2023/03/20 11:35:59;;;;;;;6.00;3.00;;;;;;;;;;4998712;28;20200;-90
2023/03/20 11:38:26;;;;;;;3.73;2.70;;;;;;;;;;5006152;28;20236;-89
2023/03/20 11:40:53;;;;;;;3.80;2.47;;;;;;;;;;4999439;28;20204;-93
2023/03/20 11:43:22;;;;;;;6.27;2.67;;;;;;;;;;5010756;28;20201;-89
2023/03/20 11:45:50;;;;;;;4.70;2.90;;;;;;;;;;5002904;28;20289;-89
2023/03/20 11:48:21;;;;;;;4.57;2.93;;;;;;;;;;4996970;28;20321;-88
2023/03/20 11:50:49;;;;;;;3.13;2.80;;;;;;;;;;5009789;28;20288;-89
2023/03/20 11:53:23;;;;;;;4.73;2.77;;;;;;;;;;5008669;28;20205;-87
2023/03/20 11:56:00;;;;;;;6.20;3.57;;;;;;;;;;5010777;28;20252;-88
2023/03/20 11:58:28;;;;;;;4.17;3.13;;;;;;;;;;4997072;28;20215;-86
2023/03/20 12:00:56;;;;;;;5.10;3.23;;;;;;;;;;5005557;28;20251;-87
2023/03/20 12:03:45;;;;;;;6.17;3.50;;;;;;;;;;5006667;28;20355;-88
2023/03/20 12:06:17;;;;;;;5.07;3.20;;;;;;;;;;5008232;28;20212;-87
2023/03/20 12:08:48;;;;;;;4.57;3.43;;;;;;;;;;5007963;28;20205;-88
2023/03/20 12:11:34;;;;;;;4.73;3.60;;;;;;;;;;4991765;28;20224;-87
2023/03/20 12:14:03;;;;;;;4.10;3.10;;;;;;;;;;5006156;28;20216;-87
2023/03/20 12:16:31;;;;;;;4.73;3.00;;;;;;;;;;5004019;28;20201;-86
2023/03/20 12:19:02;;;;;;;6.67;3.37;;;;;;;;;;5004072;28;20193;-88
2023/03/20 12:21:33;;;;;;;4.40;2.70;;;;;;;;;;5006659;28;20247;-87
2023/03/20 12:24:03;;;;;;;4.40;2.63;;;;;;;;;;5005257;28;20216;-88
2023/03/20 12:26:33;;;;;;;5.63;3.33;;;;;;;;;;5004256;28;20255;-87
2023/03/20 12:29:04;;;;;;;3.70;2.43;;;;;;;;;;5004909;28;20220;-88
2023/03/20 12:31:33;;;;;;;4.17;2.60;;;;;;;;;;5005967;28;20205;-87
2023/03/20 12:34:04;;;;;;;4.97;2.50;;;;;;;;;;5013622;28;20200;-88
2023/03/20 12:36:34;;;;;;;3.23;2.50;;;;;;;;;;5008010;28;20197;-92
2023/03/20 12:39:02;;;;;;;5.20;3.00;;;;;;;;;;5006862;28;20194;-88
2023/03/20 12:41:31;;;;;;;7.17;3.20;;;;;;;;;;5004702;28;20200;-88
2023/03/20 12:44:13;;;;;;;4.77;2.80;;;;;;;;;;5006156;28;20215;-88
2023/03/20 12:46:44;;;;;;;4.80;2.30;;;;;;;;;;5006172;28;20197;-88
2023/03/20 12:49:18;;;;;;;4.73;2.80;;;;;;;;;;5002219;28;20201;-88
2023/03/20 12:51:52;;;;;;;4.93;2.53;;;;;;;;;;5003739;28;20254;-88
2023/03/20 12:54:29;;;;;;;4.03;2.17;;;;;;;;;;5007210;28;20244;-88
2023/03/20 12:57:03;;;;;;;5.27;2.17;;;;;;;;;;5009722;28;20231;-88
2023/03/20 12:59:35;;;;;;;3.97;1.90;;;;;;;;;;5010619;28;20202;-88
2023/03/20 13:02:11;;;;;;;3.33;1.80;;;;;;;;;;5005280;28;20189;-88
2023/03/20 13:04:46;;;;;;;7.10;2.30;;;;;;;;;;5008758;28;20303;-87
2023/03/20 13:07:17;;;;;;;6.80;2.40;;;;;;;;;;5010122;28;20203;-88
2023/03/20 13:09:50;;;;;;;4.10;2.20;;;;;;;;;;5005245;28;20219;-88
2023/03/20 13:12:23;;;;;;;3.03;2.20;;;;;;;;;;5008879;28;20205;-87
2023/03/20 13:14:57;;;;;;;4.43;1.97;;;;;;;;;;5010076;28;20196;-87
2023/03/20 13:17:28;;;;;;;3.30;1.87;;;;;;;;;;5006459;28;20205;-88
2023/03/20 13:20:03;;;;;;;2.90;1.97;;;;;;;;;;5005894;28;20219;-88
2023/03/20 13:22:33;;;;;;;4.43;2.17;;;;;;;;;;5006290;28;20264;-88
2023/03/20 13:25:04;;;;;;;4.33;1.67;;;;;;;;;;5003134;28;20229;-88
2023/03/20 13:27:36;;;;;;;4.30;1.77;;;;;;;;;;5004503;28;20275;-88
2023/03/20 13:30:08;;;;;;;5.20;2.23;;;;;;;;;;5012179;28;20292;-88
2023/03/20 13:32:41;;;;;;;6.27;1.87;;;;;;;;;;5005888;28;20201;-88
2023/03/20 13:35:19;;;;;;;4.00;2.00;;;;;;;;;;5009111;28;20192;-88
2023/03/20 13:37:48;;;;;;;3.00;1.80;;;;;;;;;;5009647;28;20204;-88
2023/03/20 13:40:19;;;;;;;4.30;1.80;;;;;;;;;;4991799;28;20264;-88
2023/03/20 13:42:49;;;;;;;3.87;1.80;;;;;;;;;;5007115;28;20202;-88
2023/03/20 13:45:24;;;;;;;4.57;1.70;;;;;;;;;;5001094;28;20287;-87
2023/03/20 13:47:53;;;;;;;5.90;2.03;;;;;;;;;;5005578;28;20211;-88
2023/03/20 13:50:38;;;;;;;3.27;1.70;;;;;;;;;;5002979;28;20198;-88
2023/03/20 13:53:11;;;;;;;5.47;1.97;;;;;;;;;;4998244;28;20200;-88
2023/03/20 13:55:45;;;;;;;5.03;1.87;;;;;;;;;;5008262;28;20205;-88
2023/03/20 13:58:20;;;;;;;3.30;2.00;;;;;;;;;;5009048;28;20201;-87
2023/03/20 14:00:50;;;;;;;4.80;2.10;;;;;;;;;;5010421;28;20294;-87
2023/03/20 14:03:19;;;;;;;2.77;1.47;;;;;;;;;;5009684;28;20212;-88
2023/03/20 14:05:48;;;;;;;3.37;1.80;;;;;;;;;;5011614;28;20228;-87
2023/03/20 14:08:23;;;;;;;3.87;1.80;;;;;;;;;;5011910;28;20209;-87
2023/03/20 14:10:55;;;;;;;3.60;1.97;;;;;;;;;;5009029;28;20235;-88
2023/03/20 14:13:24;;;;;;;4.03;2.00;;;;;;;;;;5009492;28;20229;-87
2023/03/20 14:15:55;;;;;;;4.13;1.73;;;;;;;;;;5010978;28;20228;-87
2023/03/20 14:18:23;;;;;;;4.07;1.70;;;;;;;;;;5012033;28;20205;-88
2023/03/20 14:20:56;;;;;;;5.40;1.83;;;;;;;;;;5011772;28;20224;-87
2023/03/20 14:23:30;;;;;;;3.97;1.57;;;;;;;;;;5007299;28;20204;-87
2023/03/20 14:25:58;;;;;;;6.40;1.70;;;;;;;;;;5003450;28;20311;-89
2023/03/20 14:28:27;;;;;;;3.80;1.70;;;;;;;;;;4984924;28;20256;-88
2023/03/20 14:31:09;;;;;;;4.97;1.70;;;;;;;;;;5000929;28;20193;-90
2023/03/20 14:33:42;;;;;;;4.83;1.70;;;;;;;;;;5007789;28;20207;-91
2023/03/20 14:36:20;;;;;;;6.87;1.80;;;;;;;;;;4993687;28;20205;-90
2023/03/20 14:38:52;;;;;;;3.03;1.50;;;;;;;;;;5008024;28;20224;-92
2023/03/20 14:41:23;;;;;;;3.73;1.90;;;;;;;;;;5002172;28;20292;-91
2023/03/20 14:43:59;;;;;;;3.63;1.80;;;;;;;;;;5001896;28;20304;-93
2023/03/20 14:46:31;;;;;;;5.87;2.10;;;;;;;;;;5001192;28;20224;-90